Flight Track Log - Related Links

Times and Time Zones

All times are in EDT time to prevent confusion due to time zone crossing. See the AVA42 flight status page for this flight to view local times or setup timezone preferences in your user account.

Time Position Orientation Groundspeed Altitude Reporting Facility
EDT Latitude Longitude Course Direction KTS MPH feet Rate Location/Type
Mon 01:03:29 AM 6.8160 -75.4020 350° North 399 459 17,200  Level FlightAware ADS-B
Mon 01:04:08 AM 6.8760 -75.4130 350° North 399 459 17,200 1,520 Level FlightAware ADS-B
Mon 01:04:44 AM 6.9560 -75.4270 350° North 409 471 19,100 2,282 Climbing FlightAware ADS-B
Mon 01:05:19 AM 7.0220 -75.4380 351° North 412 474 19,900 1,477 Climbing FlightAware ADS-B
Mon 01:05:49 AM 7.0770 -75.4480 350° North 412 474 20,700 1,200 Climbing FlightAware ADS-B
Mon 01:06:34 AM 7.1630 -75.4630 350° North 425 489 21,400 975 Climbing FlightAware ADS-B
Mon 01:07:09 AM 7.2330 -75.4760 350° North 432 497 22,000 1,120 Climbing FlightAware ADS-B
Mon 01:07:49 AM 7.3100 -75.4890 350° North 436 502 22,800 1,200 Climbing FlightAware ADS-B
Mon 01:08:09 AM 7.3520 -75.4990 347° North 439 505 23,200 1,200 Climbing FlightAware ADS-B
Mon 01:08:39 AM 7.4070 -75.5260 334° Northwest 443 510 23,800 1,108 Climbing FlightAware ADS-B
Mon 01:09:14 AM 7.4710 -75.5580 334° Northwest 445 512 24,400 800 Climbing FlightAware ADS-B
Mon 01:09:54 AM 7.5370 -75.6000 328° Northwest 451 519 24,800 857 Climbing FlightAware ADS-B
Mon 01:10:24 AM 7.5960 -75.6370 328° Northwest 453 521 25,400 896 Climbing FlightAware ADS-B
Mon 01:11:01 AM 7.6580 -75.6760 328° Northwest 457 526 25,800 800 Climbing FlightAware ADS-B
Mon 01:11:24 AM 7.7060 -75.7020 332° Northwest 458 527 26,200 947 Climbing FlightAware ADS-B
Mon 01:11:39 AM 7.7350 -75.7090 347° North 459 528 26,400 667 Climbing FlightAware ADS-B
Mon 01:12:09 AM 7.8010 -75.7180 352° North 467 537 26,700 771 Climbing FlightAware ADS-B
Mon 01:12:49 AM 7.8850 -75.7320 351° North 472 543 27,300 800 Climbing FlightAware ADS-B
Mon 01:13:24 AM 7.9600 -75.7440 351° North 477 549 27,700 923 Climbing FlightAware ADS-B
Mon 01:13:54 AM 8.0280 -75.7550 351° North 475 547 28,300 923 Climbing FlightAware ADS-B
Mon 01:14:29 AM 8.1050 -75.7670 351° North 477 549 28,700 686 Climbing FlightAware ADS-B
Mon 01:15:04 AM 8.1790 -75.7780 352° North 481 554 29,100 857 Climbing FlightAware ADS-B
Mon 01:15:39 AM 8.2580 -75.7910 351° North 480 552 29,700 975 Climbing FlightAware ADS-B
Mon 01:16:24 AM 8.3550 -75.8060 351° North 482 555 30,400 960 Climbing FlightAware ADS-B
Mon 01:16:54 AM 8.4230 -75.8170 351° North 484 557 30,900 1,286 Climbing FlightAware ADS-B
Mon 01:17:34 AM 8.5140 -75.8310 351° North 481 554 31,900 886 Climbing FlightAware ADS-B
Mon 01:18:22 AM 8.6080 -75.8460 351° North 480 552 32,200 214 Climbing FlightAware ADS-B
Mon 01:18:58 AM 8.6750 -75.8570 351° North 480 552 32,200  Level FlightAware ADS-B
Mon 01:19:35 AM 8.7440 -75.8680 351° North 480 552 32,200  Level FlightAware ADS-B
Mon 01:20:12 AM 8.8130 -75.8790 351° North 480 552 32,200  Level FlightAware ADS-B
Mon 01:20:48 AM 8.8800 -75.8900 351° North 480 552 32,200  Level FlightAware ADS-B
Mon 01:21:24 AM 8.9470 -75.9010 351° North 480 552 32,200  Level FlightAware ADS-B
Mon 01:22:00 AM 9.0140 -75.9110 352° North 480 552 32,200  Level FlightAware ADS-B
Mon 01:22:36 AM 9.0810 -75.9220 351° North 480 552 32,200 1,688 Level FlightAware ADS-B
Mon 01:23:04 AM 9.2310 -75.9450 351° North 475 547 34,000 1,588 Climbing FlightAware ADS-B
Mon 01:23:44 AM 9.3200 -75.9590 351° North 476 548 34,000  Level FlightAware ADS-B
Mon 01:24:19 AM 9.3980 -75.9710 351° North 476 548 34,000  Level FlightAware ADS-B
Mon 01:24:54 AM 9.4740 -75.9840 350° North 476 548 34,000  Level FlightAware ADS-B
Mon 01:25:29 AM 9.5480 -75.9950 352° North 476 548 34,000  Level FlightAware ADS-B
Mon 01:26:04 AM 9.6240 -76.0070 351° North 476 548 34,000  Level FlightAware ADS-B
Mon 01:26:39 AM 9.7030 -76.0200 351° North 476 548 34,000  Level FlightAware ADS-B
Mon 01:27:14 AM 9.7790 -76.0320 351° North 475 547 34,000  Level FlightAware ADS-B
Mon 01:27:50 AM 9.8540 -76.0440 351° North 475 547 34,000  Level FlightAware ADS-B
Mon 01:28:24 AM 9.9290 -76.0560 351° North 474 545 34,000  Level FlightAware ADS-B
Mon 01:28:59 AM 10.0080 -76.0690 351° North 473 544 34,000  Level FlightAware ADS-B
Mon 01:29:34 AM 10.0800 -76.0800 351° North 473 544 34,000  Level FlightAware ADS-B
Mon 01:30:09 AM 10.1580 -76.0920 351° North 473 544 34,000  Level FlightAware ADS-B
Mon 01:30:44 AM 10.2340 -76.1050 350° North 473 544 34,000  Level FlightAware ADS-B
Mon 01:31:19 AM 10.3110 -76.1170 351° North 473 544 34,000  Level FlightAware ADS-B
Mon 01:31:54 AM 10.3880 -76.1290 351° North 473 544 34,000  Level FlightAware ADS-B
Mon 01:32:29 AM 10.4630 -76.1410 351° North 473 544 34,000  Level FlightAware ADS-B
Mon 01:33:04 AM 10.5370 -76.1530 351° North 473 544 34,000  Level FlightAware ADS-B
Mon 01:33:39 AM 10.6130 -76.1650 351° North 473 544 34,000  Level FlightAware ADS-B
Mon 01:34:14 AM 10.6890 -76.1780 350° North 473 544 34,000  Level FlightAware ADS-B
Mon 01:34:49 AM 10.7670 -76.1900 351° North 473 544 34,000  Level FlightAware ADS-B
Mon 01:35:24 AM 10.8410 -76.2020 351° North 474 545 34,000  Level FlightAware ADS-B
Mon 01:35:59 AM 10.9200 -76.2150 351° North 474 545 34,000  Level FlightAware ADS-B
Mon 01:36:34 AM 10.9960 -76.2270 351° North 474 545 34,000  Level FlightAware ADS-B
Mon 01:37:09 AM 11.0710 -76.2390 351° North 473 544 34,000  Level FlightAware ADS-B
Mon 01:37:44 AM 11.1410 -76.2500 351° North 473 544 34,000  Level FlightAware ADS-B
Mon 01:38:19 AM 11.2230 -76.2630 351° North 473 544 34,000  Level FlightAware ADS-B
Mon 01:38:54 AM 11.2920 -76.2740 351° North 472 543 34,000  Level FlightAware ADS-B
Mon 01:39:29 AM 11.3730 -76.2870 351° North 472 543 34,000  Level FlightAware ADS-B
Mon 01:40:04 AM 11.4490 -76.3000 350° North 470 541 34,000  Level FlightAware ADS-B
Mon 01:40:39 AM 11.5220 -76.3110 352° North 468 539 34,000  Level FlightAware ADS-B
Mon 01:41:31 AM 11.6270 -76.3280 351° North 466 536 34,000  Level FlightAware ADS-B
Mon 01:42:08 AM 11.6940 -76.3390 351° North 466 536 34,000  Level FlightAware ADS-B
Mon 01:42:44 AM 11.7830 -76.3540 351° North 722 831 34,000  Level FlightAware ADS-B
Mon 01:45:00 AM 12.0681 -76.3334 North  Level Estimated
Mon 01:46:00 AM 12.1939 -76.3243 North  Level Estimated
Mon 01:47:00 AM 12.3197 -76.3152 North  Level Estimated
Mon 01:48:00 AM 12.4455 -76.3061 North  Level Estimated
Mon 01:49:00 AM 12.5713 -76.2970 North  Level Estimated
Mon 01:50:00 AM 12.6971 -76.2878 North  Level Estimated
Mon 01:51:00 AM 12.8229 -76.2787 North  Level Estimated
Mon 01:52:00 AM 12.9487 -76.2695 North  Level Estimated
Mon 01:53:00 AM 13.0744 -76.2604 North  Level Estimated
Mon 01:54:00 AM 13.2002 -76.2512 North  Level Estimated
Mon 01:55:00 AM 13.3260 -76.2420 North  Level Estimated
Mon 01:56:00 AM 13.4518 -76.2328 North  Level Estimated
Mon 01:57:00 AM 13.5776 -76.2236 North  Level Estimated
Mon 01:58:00 AM 13.7034 -76.2144 North  Level Estimated
Mon 01:59:00 AM 13.8292 -76.2052 North  Level Estimated
Mon 02:00:00 AM 13.9550 -76.1960 North  Level Estimated
Mon 02:01:00 AM 14.0808 -76.1867 North  Level Estimated
Mon 02:02:00 AM 14.2066 -76.1775 North  Level Estimated
Mon 02:03:00 AM 14.3323 -76.1682 North  Level Estimated
Mon 02:04:00 AM 14.4581 -76.1590 North  Level Estimated
Mon 02:05:00 AM 14.5839 -76.1497 North  Level Estimated
Mon 02:06:00 AM 14.7097 -76.1404 North  Level Estimated
Mon 02:07:00 AM 14.8355 -76.1311 North  Level Estimated
Mon 02:08:00 AM 14.9613 -76.1218 North  Level Estimated
Mon 02:09:00 AM 15.0871 -76.1125 North  Level Estimated
Mon 02:10:00 AM 15.2128 -76.1031 North  Level Estimated
Mon 02:11:00 AM 15.3386 -76.0938 North  Level Estimated
Mon 02:12:00 AM 15.4644 -76.0844 North  Level Estimated
Mon 02:13:00 AM 15.5902 -76.0751 North  Level Estimated
Mon 02:14:00 AM 15.7160 -76.0657 North  Level Estimated
Mon 02:15:00 AM 15.8417 -76.0563 North  Level Estimated
Mon 02:16:00 AM 15.9675 -76.0469 North  Level Estimated
Mon 02:17:00 AM 16.0933 -76.0375 North  Level Estimated
Mon 02:18:00 AM 16.2191 -76.0281 North  Level Estimated
Mon 02:19:00 AM 16.3449 -76.0186 North  Level Estimated
Mon 02:20:00 AM 16.4706 -76.0092 North  Level Estimated
Mon 02:21:00 AM 16.5964 -75.9997 North  Level Estimated
Mon 02:22:00 AM 16.7222 -75.9902 North  Level Estimated
Mon 02:23:00 AM 16.8480 -75.9807 North  Level Estimated
Mon 02:24:00 AM 16.9737 -75.9712 North  Level Estimated
Mon 02:25:00 AM 17.0995 -75.9617 North  Level Estimated
Mon 02:26:00 AM 17.2253 -75.9522 North  Level Estimated
Mon 02:27:00 AM 17.3511 -75.9427 North  Level Estimated
Mon 02:28:00 AM 17.4769 -75.9331 North  Level Estimated
Mon 02:29:00 AM 17.6026 -75.9236 North  Level Estimated
Mon 02:30:00 AM 17.7284 -75.9140 North  Level Estimated
Mon 02:31:00 AM 17.8542 -75.9044 North  Level Estimated
Mon 02:32:00 AM 17.9800 -75.8948 North  Level Estimated
Mon 02:33:00 AM 18.1057 -75.8852 North  Level Estimated
Mon 02:34:00 AM 18.2315 -75.8755 North  Level Estimated
Mon 02:35:00 AM 18.3573 -75.8659 North  Level Estimated
Mon 02:36:00 AM 18.4830 -75.8562 North  Level Estimated
Mon 02:37:00 AM 18.6088 -75.8465 North  Level Estimated
Mon 02:38:00 AM 18.7346 -75.8369 North  Level Estimated
Mon 02:39:00 AM 18.8603 -75.8272 North  Level Estimated
Mon 02:40:00 AM 18.9861 -75.8174 North  Level Estimated
Mon 02:41:00 AM 19.1119 -75.8077 North  Level Estimated
Mon 02:42:00 AM 19.2377 -75.7980 North  Level Estimated
Mon 02:43:00 AM 19.3634 -75.7882 North  Level Estimated
Mon 02:44:00 AM 19.4892 -75.7784 North  Level Estimated
Mon 02:45:00 AM 19.6150 -75.7686 North  Level Estimated
Mon 02:46:00 AM 19.7407 -75.7588 North  Level Estimated
Mon 02:47:00 AM 19.8665 -75.7490 North  Level Estimated
Mon 02:48:00 AM 19.9923 -75.7392 North  Level Estimated
Mon 02:49:00 AM 20.1180 -75.7293 North  Level Estimated
Mon 02:50:00 AM 20.2438 -75.7194 North  Level Estimated
Mon 02:51:00 AM 20.3696 -75.7095 North  Level Estimated
Mon 02:52:00 AM 20.4953 -75.6997 North  Level Estimated
Mon 02:53:00 AM 20.6211 -75.6897 North  Level Estimated
Mon 02:54:00 AM 20.7468 -75.6798 North  Level Estimated
Mon 02:55:00 AM 20.8726 -75.6698 North  Level Estimated
Mon 02:56:00 AM 20.9984 -75.6599 North  Level Estimated
Mon 02:57:00 AM 21.1241 -75.6499 North  Level Estimated
Mon 02:58:00 AM 21.2499 -75.6399 North  Level Estimated
Mon 02:59:00 AM 21.3757 -75.6299 North  Level Estimated
Mon 03:00:00 AM 21.5014 -75.6198 North  Level Estimated
Mon 03:01:00 AM 21.6272 -75.6098 North  Level Estimated
Mon 03:02:00 AM 21.7529 -75.5997 North  Level Estimated
Mon 03:03:00 AM 21.8787 -75.5896 North  Level Estimated
Mon 03:04:00 AM 22.0044 -75.5795 North  Level Estimated
Mon 03:05:00 AM 22.1302 -75.5694 North  Level Estimated
Mon 03:06:00 AM 22.2560 -75.5592 North  Level Estimated
Mon 03:07:00 AM 22.3817 -75.5491 North  Level Estimated
Mon 03:08:00 AM 22.5075 -75.5389 North  Level Estimated
Mon 03:09:00 AM 22.6332 -75.5287 North  Level Estimated
Mon 03:10:00 AM 22.7590 -75.5185 North  Level Estimated
Mon 03:11:00 AM 22.8847 -75.5082 North  Level Estimated
Mon 03:12:00 AM 23.0105 -75.4980 North  Level Estimated
Mon 03:13:00 AM 23.1362 -75.4877 North  Level Estimated
Mon 03:14:00 AM 23.2565 -75.4779 North  Level Estimated
Mon 03:15:00 AM 23.3769 -75.4680 North  Level Estimated
Mon 03:16:00 AM 23.4972 -75.4581 North  Level Estimated
Mon 03:17:00 AM 23.6175 -75.4482 North  Level Estimated
Mon 03:17:33 AM 23.2280 -78.9200 North 426 490 34,000  Level FlightAware ADS-B
Mon 03:18:00 AM 23.7378 -75.4383 North  Level Estimated
Mon 03:18:08 AM 23.2910 -78.9330 349° North 426 490 34,000  Level FlightAware ADS-B
Mon 03:18:44 AM 23.3510 -78.9460 349° North 426 490 34,000  Level FlightAware ADS-B
Mon 03:19:21 AM 23.4120 -78.9580 350° North 426 490 34,000  Level FlightAware ADS-B
Mon 03:19:57 AM 23.4710 -78.9710 349° North 426 490 34,000  Level FlightAware ADS-B
Mon 03:20:33 AM 23.5300 -78.9840 349° North 426 490 34,000  Level FlightAware ADS-B
Mon 03:21:09 AM 23.6570 -79.0030 352° North 428 493 34,000  Level FlightAware ADS-B
Mon 03:22:01 AM 23.7490 -79.0220 349° North 428 493 34,000  Level FlightAware ADS-B
Mon 03:22:34 AM 23.8250 -79.0350 351° North 428 493 34,000  Level FlightAware ADS-B
Mon 03:23:04 AM 23.8860 -79.0470 350° North 427 491 34,000  Level FlightAware ADS-B
Mon 03:23:44 AM 23.9680 -79.0610 351° North 433 498 34,000  Level FlightAware ADS-B
Mon 03:24:29 AM 24.0560 -79.0610 360° North 434 499 34,000  Level FlightAware ADS-B
Mon 03:25:04 AM 24.1200 -79.0520 North 434 499 34,000 240 Level FlightAware ADS-B
Mon 03:25:44 AM 24.2080 -79.0400 North 436 502 34,300 800 Climbing FlightAware ADS-B
Mon 03:26:19 AM 24.2780 -79.0300 North 434 499 35,000 560 Climbing FlightAware ADS-B
Mon 03:26:59 AM 24.3560 -79.0190 North 425 489 35,000  Level FlightAware ADS-B
Mon 03:27:34 AM 24.4250 -79.0090 North 425 489 35,000  Level FlightAware ADS-B
Mon 03:28:09 AM 24.4950 -78.9990 North 425 489 35,000  Level FlightAware ADS-B
Mon 03:28:44 AM 24.5670 -78.9880 North 435 501 35,000  Level FlightAware ADS-B
Mon 03:29:25 AM 24.6460 -78.9770 North 435 501 35,000  Level FlightAware ADS-B
Mon 03:29:59 AM 24.7170 -78.9670 North 435 501 35,000  Level FlightAware ADS-B
Mon 03:30:39 AM 24.7970 -78.9550 North 435 501 35,000  Level FlightAware ADS-B
Mon 03:31:09 AM 24.8580 -78.9460 North 434 499 35,000  Level FlightAware ADS-B
Mon 03:31:44 AM 24.9250 -78.9370 North 425 489 35,000  Level FlightAware ADS-B
Mon 03:32:24 AM 25.0080 -78.9250 North 425 489 35,000  Level FlightAware ADS-B
Mon 03:32:54 AM 25.0620 -78.9170 North 424 488 35,000  Level FlightAware ADS-B
Mon 03:33:29 AM 25.1350 -78.9060 North 424 488 35,000  Level FlightAware ADS-B
Mon 03:34:03 AM 25.2040 -78.8960 North 424 488 35,000  Level FlightAware ADS-B
Mon 03:34:44 AM 25.2850 -78.8840 North 424 488 35,000  Level FlightAware ADS-B
Mon 03:35:13 AM 25.3440 -78.8760 North 423 487 35,000  Level FlightAware ADS-B
Mon 03:35:49 AM 25.4130 -78.8660 North 423 487 35,000  Level FlightAware ADS-B
Mon 03:36:24 AM 25.4850 -78.8550 North 422 486 35,000  Level FlightAware ADS-B
Mon 03:36:59 AM 25.5520 -78.8450 North 422 486 35,000  Level FlightAware ADS-B
Mon 03:37:39 AM 25.6310 -78.8340 North 423 487 35,000  Level FlightAware ADS-B
Mon 03:38:09 AM 25.6910 -78.8250 North 425 489 35,000  Level FlightAware ADS-B
Mon 03:38:44 AM 25.7610 -78.8150 North 425 489 35,000  Level FlightAware ADS-B
Mon 03:39:19 AM 25.8310 -78.8050 North 434 499 35,000  Level FlightAware ADS-B
Mon 03:39:59 AM 25.9110 -78.7930 North 434 499 35,000  Level FlightAware ADS-B
Mon 03:40:29 AM 25.9710 -78.7840 North 434 499 35,000  Level FlightAware ADS-B
Mon 03:40:59 AM 26.0340 -78.7750 North 426 490 35,000  Level FlightAware ADS-B
Mon 03:41:35 AM 26.1010 -78.7650 North 426 490 35,000  Level FlightAware ADS-B
Mon 03:42:10 AM 26.1750 -78.7540 North 425 489 35,000  Level FlightAware ADS-B
Mon 03:42:45 AM 26.2430 -78.7440 North 434 499 35,000  Level FlightAware ADS-B
Mon 03:43:20 AM 26.3120 -78.7340 North 436 502 35,000  Level FlightAware ADS-B
Mon 03:43:55 AM 26.3810 -78.7230 North 435 501 35,000  Level FlightAware ADS-B
Mon 03:44:35 AM 26.4600 -78.7120 North 434 499 35,000  Level FlightAware ADS-B
Mon 03:45:10 AM 26.5320 -78.7010 North 426 490 35,000  Level FlightAware ADS-B
Mon 03:45:45 AM 26.6020 -78.6910 North 424 488 35,000  Level FlightAware ADS-B
Mon 03:46:25 AM 26.6750 -78.6800 North 424 488 35,000  Level FlightAware ADS-B
Mon 03:46:58 AM 26.7500 -78.6680 North 430 495 35,000  Level FlightAware ADS-B
Mon 03:47:33 AM 26.8170 -78.6580 North 431 496 35,000  Level FlightAware ADS-B
Mon 03:48:06 AM 26.8820 -78.6480 North 424 488 35,000  Level FlightAware ADS-B
Mon 03:48:43 AM 26.9580 -78.6370 North 432 497 35,000  Level FlightAware ADS-B
Mon 03:49:16 AM 27.0140 -78.6290 North 432 497 35,000  Level FlightAware ADS-B
Mon 03:49:49 AM 27.0840 -78.6180 North 425 489 35,000  Level FlightAware ADS-B
Mon 03:50:33 AM 27.1740 -78.6040 North 425 489 35,000  Level FlightAware ADS-B
Mon 03:51:08 AM 27.2430 -78.5940 North 425 489 35,000  Level FlightAware ADS-B
Mon 03:51:43 AM 27.3110 -78.5840 North 425 489 35,000  Level FlightAware ADS-B
Mon 03:52:23 AM 27.3950 -78.5710 North 424 488 35,000  Level FlightAware ADS-B
Mon 03:52:58 AM 27.4540 -78.5620 North 424 488 35,000  Level FlightAware ADS-B
Mon 03:53:39 AM 27.5460 -78.5480 North 433 498 35,000  Level FlightAware ADS-B
Mon 03:54:11 AM 27.6100 -78.5380 North 433 498 35,000  Level FlightAware ADS-B
Mon 03:54:52 AM 27.6800 -78.5280 North 433 498 35,000  Level FlightAware ADS-B
Mon 03:55:43 AM 27.7930 -78.5100 North 434 499 35,000  Level FlightAware ADS-B
Mon 03:56:29 AM 27.8820 -78.4960 North 433 498 35,000  Level FlightAware ADS-B
Mon 03:56:59 AM 27.9430 -78.4870 North 431 496 35,000  Level FlightAware ADS-B
Mon 03:57:31 AM 28.0070 -78.4770 North 429 494 35,000  Level FlightAware ADS-B
Mon 03:58:11 AM 28.0870 -78.4650 North 428 493 35,000  Level FlightAware ADS-B
Mon 03:58:38 AM 28.1370 -78.4570 North 430 495 35,000  Level FlightAware ADS-B
Mon 03:59:29 AM 28.2310 -78.4430 North 430 495 35,000  Level FlightAware ADS-B
Mon 04:00:20 AM 28.3300 -78.4280 North 430 495 35,000  Level FlightAware ADS-B
Mon 04:01:08 AM 28.4250 -78.4120 North 425 489 35,000  Level FlightAware ADS-B
Mon 04:01:47 AM 28.5140 -78.3990 North 436 502 35,000  Level FlightAware ADS-B
Mon 04:02:32 AM 28.5950 -78.3860 North 435 501 35,000  Level FlightAware ADS-B
Mon 04:03:08 AM 28.6560 -78.3760 North 435 501 35,000  Level FlightAware ADS-B
Mon 04:03:45 AM 28.7190 -78.3660 North 435 501 35,000 -51 Level FlightAware ADS-B
Mon 04:05:05 AM 28.8781 -78.2808 North 419 482 34,900 -43 Descending Miami Center
Mon 04:06:06 AM 28.9769 -78.1967 37° Northeast 419 482 34,900 50 Level Miami Center
Mon 04:07:06 AM 29.0758 -78.1100 37° Northeast 430 495 35,000 50 Climbing Miami Center
Mon 04:08:07 AM 29.1806 -78.0400 30° Northeast 435 501 35,000  Level Miami Center
Mon 04:09:07 AM 29.2894 -77.9958 19° North 420 483 35,000  Level Miami Center
Mon 04:10:04 AM 29.4086 -77.9733 North 420 483 35,000  Level Miami Center
Mon 04:11:04 AM 29.5275 -77.9675 North 432 497 35,000  Level Miami Center
Mon 04:12:04 AM 29.6486 -77.9542 North 429 494 35,000  Level Miami Center
Mon 04:13:34 AM 29.8156 -77.9378 North 427 491 35,000  Level Jacksonville Center
Mon 04:14:34 AM 29.9333 -77.9081 12° North 427 491 35,000  Level Jacksonville Center
Mon 04:15:34 AM 30.0531 -77.8778 12° North 427 491 35,000  Level Jacksonville Center
Mon 04:16:34 AM 30.1708 -77.8453 13° North 427 491 35,000  Level Jacksonville Center
Mon 04:17:34 AM 30.2906 -77.8125 13° North 433 498 35,000  Level Jacksonville Center
Mon 04:18:34 AM 30.4081 -77.7772 15° North 433 498 35,000  Level Jacksonville Center
Mon 04:19:34 AM 30.5275 -77.7372 16° North 433 498 35,000  Level Jacksonville Center
Mon 04:20:34 AM 30.6453 -77.7092 12° North 433 498 35,000  Level Jacksonville Center
Mon 04:21:34 AM 30.7672 -77.6758 13° North 433 498 35,000  Level Jacksonville Center
Mon 04:22:34 AM 30.8847 -77.6450 13° North 428 493 35,000  Level Jacksonville Center
Mon 04:23:34 AM 31.0067 -77.6117 13° North 428 493 35,000 -50 Level Jacksonville Center
Mon 04:24:34 AM 31.1242 -77.5783 14° North 433 498 34,900  Descending Jacksonville Center
Mon 04:25:34 AM 31.2419 -77.5475 13° North 433 498 35,000 50 Climbing Jacksonville Center
Mon 04:26:34 AM 31.3631 -77.5039 17° North 433 498 35,000  Level Jacksonville Center
Mon 04:27:34 AM 31.4808 -77.4778 11° North 433 498 35,000  Level Jacksonville Center
Mon 04:28:34 AM 31.6006 -77.4439 14° North 433 498 35,000  Level Jacksonville Center
Mon 04:29:34 AM 31.7222 -77.4075 14° North 433 498 35,000 -50 Level Jacksonville Center
Mon 04:30:34 AM 31.8544 -77.3753 12° North 438 504 34,900  Descending Jacksonville Center
Mon 04:31:34 AM 31.9775 -77.3286 18° North 443 510 35,000 50 Climbing Jacksonville Center
Mon 04:32:34 AM 32.0953 -77.3019 11° North 448 516 35,000  Level Jacksonville Center
Mon 04:33:34 AM 32.2147 -77.2675 14° North 443 510 35,000  Level Jacksonville Center
Mon 04:34:34 AM 32.3364 -77.2331 13° North 443 510 35,000  Level Jacksonville Center
Mon 04:35:34 AM 32.4558 -77.1986 14° North 449 517 35,000  Level Jacksonville Center
Mon 04:36:34 AM 32.5775 -77.1639 14° North 449 517 35,000 -50 Level Jacksonville Center
Mon 04:37:34 AM 32.6989 -77.1264 15° North 449 517 34,900  Descending Jacksonville Center
Mon 04:39:11 AM 32.8778 -77.0775 13° North 450 518 35,000 38 Climbing Washington Center
Mon 04:40:12 AM 32.9969 -77.0400 15° North 444 511 35,000  Level Washington Center
Mon 04:41:10 AM 33.1206 -77.0075 12° North 444 511 35,000  Level Washington Center
Mon 04:42:09 AM 33.2419 -76.9722 14° North 444 511 35,000  Level Washington Center
Mon 04:47:51 AM 33.5000 -76.8950 14° North 449 517 35,000  Level FlightAware ADS-B
Mon 04:48:26 AM 33.5920 -76.8680 14° North 448 516 35,000  Level FlightAware ADS-B
Mon 04:49:08 AM 33.6870 -76.8400 14° North 450 518 35,000  Level FlightAware ADS-B
Mon 04:49:39 AM 33.7660 -76.8160 14° North 453 521 35,000  Level FlightAware ADS-B
Mon 04:50:15 AM 33.8490 -76.7920 14° North 455 524 35,000  Level FlightAware ADS-B
Mon 04:50:50 AM 33.9190 -76.7710 14° North 455 524 35,000  Level FlightAware ADS-B
Mon 04:51:24 AM 34.0210 -76.7400 14° North 457 526 35,000  Level FlightAware ADS-B
Mon 04:51:59 AM 34.0740 -76.7240 14° North 456 525 35,000  Level FlightAware ADS-B
Mon 04:52:32 AM 34.1250 -76.7090 14° North 457 526 35,000  Level FlightAware ADS-B
Mon 04:53:11 AM 34.1940 -76.6880 14° North 457 526 35,000  Level FlightAware ADS-B
Mon 04:53:46 AM 34.2350 -76.6750 15° North 457 526 35,000  Level FlightAware ADS-B
Mon 04:54:24 AM 34.2910 -76.6580 14° North 457 526 35,000  Level FlightAware ADS-B
Mon 04:55:07 AM 34.3680 -76.6350 14° North 458 527 35,000  Level FlightAware ADS-B
Mon 04:55:37 AM 34.4450 -76.6120 14° North 458 527 35,000  Level FlightAware ADS-B
Mon 04:56:21 AM 34.5310 -76.5860 14° North 458 527 35,000  Level FlightAware ADS-B
Mon 04:57:04 AM 34.6040 -76.5640 14° North 458 527 35,000  Level FlightAware ADS-B
Mon 04:57:32 AM 34.6750 -76.5420 14° North 458 527 35,000  Level FlightAware ADS-B
Mon 04:58:19 AM 34.7570 -76.5170 14° North 458 527 35,000  Level FlightAware ADS-B
Mon 04:59:03 AM 34.8190 -76.4860 22° Northeast 462 532 35,000  Level FlightAware ADS-B
Mon 04:59:38 AM 34.8790 -76.4590 20° North 462 532 35,000  Level FlightAware ADS-B
Mon 05:00:15 AM 34.9420 -76.4310 20° North 462 532 35,000  Level FlightAware ADS-B
Mon 05:00:51 AM 35.0030 -76.4040 20° North 462 532 35,000  Level FlightAware ADS-B
Mon 05:01:28 AM 35.0670 -76.3760 20° North 462 532 35,000  Level FlightAware ADS-B
Mon 05:02:04 AM 35.1280 -76.3490 20° North 462 532 35,000  Level FlightAware ADS-B
Mon 05:02:40 AM 35.1890 -76.3210 21° North 462 532 35,000  Level FlightAware ADS-B
Mon 05:03:16 AM 35.2510 -76.2940 20° North 462 532 35,000  Level FlightAware ADS-B
Mon 05:03:52 AM 35.3120 -76.2670 20° North 462 532 35,000  Level FlightAware ADS-B
Mon 05:04:29 AM 35.3760 -76.2380 20° North 462 532 35,000  Level FlightAware ADS-B
Mon 05:05:15 AM 35.4540 -76.2030 20° North 462 532 35,000  Level FlightAware ADS-B
Mon 05:05:51 AM 35.5160 -76.1760 20° North 462 532 35,000  Level FlightAware ADS-B
Mon 05:06:27 AM 35.5770 -76.1480 20° North 462 532 35,000  Level FlightAware ADS-B
Mon 05:07:03 AM 35.6380 -76.1210 20° North 462 532 35,000  Level FlightAware ADS-B
Mon 05:07:39 AM 35.7000 -76.0930 20° North 462 532 35,000  Level FlightAware ADS-B
Mon 05:08:14 AM 36.4400 -75.7650 20° North 461 531 35,000  Level FlightAware ADS-B
Mon 05:08:51 AM 36.5030 -75.7360 20° North 461 531 35,000  Level FlightAware ADS-B
Mon 05:09:27 AM 36.5640 -75.7090 20° North 461 531 35,000  Level FlightAware ADS-B
Mon 05:10:03 AM 36.6260 -75.6810 20° North 461 531 35,000  Level FlightAware ADS-B
Mon 05:10:47 AM 36.7400 -75.6280 20° North 461 531 35,000  Level FlightAware ADS-B
Mon 05:11:25 AM 36.8230 -75.5900 20° North 461 531 35,000  Level FlightAware ADS-B
Mon 05:12:00 AM 36.8950 -75.5570 20° North 463 533 35,000  Level FlightAware ADS-B
Mon 05:12:41 AM 36.9860 -75.5150 20° North 471 542 35,000  Level FlightAware ADS-B
Mon 05:13:15 AM 37.0520 -75.4840 21° North 464 534 35,000  Level FlightAware ADS-B
Mon 05:13:50 AM 37.1220 -75.4520 20° North 462 532 35,000  Level FlightAware ADS-B
Mon 05:14:25 AM 37.1970 -75.4170 20° North 463 533 35,000  Level FlightAware ADS-B
Mon 05:15:00 AM 37.2690 -75.3840 20° North 462 532 35,000  Level FlightAware ADS-B
Mon 05:15:35 AM 37.3390 -75.3520 20° North 461 531 35,000  Level FlightAware ADS-B
Mon 05:16:10 AM 37.4100 -75.3180 21° North 462 532 35,000  Level FlightAware ADS-B
Mon 05:16:45 AM 37.4830 -75.2840 20° North 463 533 35,000  Level FlightAware ADS-B
Mon 05:17:20 AM 37.5540 -75.2510 20° North 464 534 35,000  Level FlightAware ADS-B
Mon 05:17:55 AM 37.6260 -75.2170 21° North 465 535 35,000  Level FlightAware ADS-B
Mon 05:18:31 AM 37.6960 -75.1840 20° North 465 535 35,000  Level FlightAware ADS-B
Mon 05:19:06 AM 37.7710 -75.1490 20° North 466 536 35,000  Level FlightAware ADS-B
Mon 05:19:42 AM 37.8440 -75.1140 21° North 466 536 35,000  Level FlightAware ADS-B
Mon 05:20:16 AM 37.9150 -75.0800 21° North 465 535 35,000  Level FlightAware ADS-B
Mon 05:20:51 AM 37.9880 -75.0460 20° North 466 536 35,000  Level FlightAware ADS-B
Mon 05:21:26 AM 38.0590 -75.0120 21° North 466 536 35,000  Level FlightAware ADS-B
Mon 05:22:01 AM 38.1320 -74.9770 21° North 466 536 35,000  Level FlightAware ADS-B
Mon 05:22:36 AM 38.2030 -74.9440 20° North 466 536 35,000  Level FlightAware ADS-B
Mon 05:23:11 AM 38.2760 -74.9090 21° North 466 536 35,000  Level FlightAware ADS-B
Mon 05:23:46 AM 38.3460 -74.8750 21° North 467 537 35,000  Level FlightAware ADS-B
Mon 05:24:21 AM 38.4150 -74.8420 21° North 468 539 35,000  Level FlightAware ADS-B
Mon 05:24:56 AM 38.4900 -74.8060 21° North 468 539 35,000  Level FlightAware ADS-B
Mon 05:25:31 AM 38.5600 -74.7720 21° North 468 539 35,000  Level FlightAware ADS-B
Mon 05:26:06 AM 38.6330 -74.7370 21° North 468 539 35,000 -86 Level FlightAware ADS-B
Mon 05:26:41 AM 38.7070 -74.7010 21° North 469 540 34,900 -1,000 Descending FlightAware ADS-B
Mon 05:27:18 AM 38.7780 -74.6660 21° North 478 550 33,800 -2,143 Descending FlightAware ADS-B
Mon 05:27:51 AM 38.8510 -74.6310 20° North 466 536 32,400 -2,559 Descending FlightAware ADS-B
Mon 05:28:26 AM 38.9210 -74.5970 21° North 464 534 30,900 -2,486 Descending FlightAware ADS-B
Mon 05:29:01 AM 38.9930 -74.5620 21° North 467 537 29,500 -2,400 Descending FlightAware ADS-B
Mon 05:29:36 AM 39.0630 -74.5270 21° North 463 533 28,100 -2,486 Descending FlightAware ADS-B
Mon 05:30:11 AM 39.1340 -74.4920 21° North 452 520 26,600 -2,366 Descending FlightAware ADS-B
Mon 05:30:47 AM 39.2050 -74.4580 20° North 447 514 25,300 -2,282 Descending FlightAware ADS-B
Mon 05:31:22 AM 39.2730 -74.4240 21° North 449 517 23,900 -2,314 Descending FlightAware ADS-B
Mon 05:31:57 AM 39.3400 -74.3910 21° North 445 512 22,600 -2,229 Descending FlightAware ADS-B
Mon 05:32:32 AM 39.4080 -74.3570 21° North 433 498 21,300 -2,229 Descending FlightAware ADS-B
Mon 05:33:07 AM 39.4740 -74.3250 21° North 431 496 20,000 -2,229 Descending FlightAware ADS-B
Mon 05:33:42 AM 39.5400 -74.2910 22° Northeast 434 499 18,700 -1,938 Descending FlightAware ADS-B
Mon 05:34:12 AM 39.5920 -74.2600 25° Northeast 420 483 17,900 -1,091 Descending FlightAware ADS-B
Mon 05:34:48 AM 39.6450 -74.2020 40° Northeast 400 460 17,500 -720 Descending FlightAware ADS-B
Mon 05:35:27 AM 39.6980 -74.1430 41° Northeast 367 422 17,000 -1,054 Descending FlightAware ADS-B
Mon 05:36:02 AM 39.7440 -74.0930 40° Northeast 363 418 16,200 -1,437 Descending FlightAware ADS-B
Mon 05:36:38 AM 39.7880 -74.0440 41° Northeast 358 412 15,300 -1,421 Descending FlightAware ADS-B
Mon 05:37:18 AM 39.8390 -73.9880 40° Northeast 349 402 14,400 -1,520 Descending FlightAware ADS-B
Mon 05:37:53 AM 39.8890 -73.9520 29° Northeast 343 395 13,400 -1,971 Descending FlightAware ADS-B
Mon 05:38:28 AM 39.9370 -73.9180 29° Northeast 343 395 12,100 -2,000 Descending FlightAware ADS-B
Mon 05:39:08 AM 39.9940 -73.8790 28° Northeast 344 396 10,900 -880 Descending FlightAware ADS-B
Mon 05:39:43 AM 40.0440 -73.8460 27° Northeast 324 373 11,000 86 Climbing FlightAware ADS-B
Mon 05:40:18 AM 40.0910 -73.8140 28° Northeast 331 381 11,000  Level FlightAware ADS-B
Mon 05:41:04 AM 40.1540 -73.7720 27° Northeast 331 381 11,000 -456 Level FlightAware ADS-B
Mon 05:41:37 AM 40.1950 -73.7410 30° Northeast 328 377 10,400 -1,220 Descending FlightAware ADS-B
Mon 05:42:03 AM 40.2240 -73.7030 45° Northeast 321 369 9,800 -1,375 Descending FlightAware ADS-B
Mon 05:42:25 AM 40.2470 -73.6730 45° Northeast 318 366 9,300 -1,385 Descending FlightAware ADS-B
Mon 05:42:42 AM 40.2650 -73.6480 47° Northeast 314 361 8,900 -1,459 Descending FlightAware ADS-B
Mon 05:43:02 AM 40.2850 -73.6220 45° Northeast 311 358 8,400 -1,756 Descending FlightAware ADS-B
Mon 05:43:23 AM 40.3070 -73.5940 44° Northeast 313 360 7,700 -1,650 Descending FlightAware ADS-B
Mon 05:43:42 AM 40.3250 -73.5710 44° Northeast 309 356 7,300 -1,286 Descending FlightAware ADS-B
Mon 05:43:51 AM 40.3370 -73.5590 37° Northeast 308 354 7,100 -1,333 Descending FlightAware ADS-B
Mon 05:44:00 AM 40.3470 -73.5510 31° Northeast 307 353 6,900 -1,241 Descending FlightAware ADS-B
Mon 05:44:20 AM 40.3730 -73.5350 25° Northeast 302 348 6,500 -1,500 Descending FlightAware ADS-B
Mon 05:44:40 AM 40.3980 -73.5200 25° Northeast 301 346 5,900 -1,579 Descending FlightAware ADS-B
Mon 05:44:58 AM 40.4220 -73.5050 25° Northeast 299 344 5,500 -1,500 Descending FlightAware ADS-B
Mon 05:45:16 AM 40.4440 -73.4910 26° Northeast 296 341 5,000 -1,500 Descending FlightAware ADS-B
Mon 05:45:34 AM 40.4630 -73.4790 26° Northeast 296 341 4,600 -1,500 Descending FlightAware ADS-B
Mon 05:45:56 AM 40.4920 -73.4610 25° Northeast 297 342 4,000 -1,077 Descending FlightAware ADS-B
Mon 05:46:13 AM 40.5140 -73.4490 23° Northeast 296 341 3,900  Descending FlightAware ADS-B
Mon 05:46:33 AM 40.5420 -73.4440 North 271 312 4,000 154 Climbing FlightAware ADS-B
Mon 05:46:52 AM 40.5640 -73.4400 North 255 293 4,000  Level FlightAware ADS-B
Mon 05:47:13 AM 40.5880 -73.4370 North 250 288 4,000  Level FlightAware ADS-B
Mon 05:47:29 AM 40.6060 -73.4340 North 249 287 4,000  Level FlightAware ADS-B
Mon 05:47:44 AM 40.6210 -73.4310 North 248 285 4,000  Level FlightAware ADS-B
Mon 05:48:08 AM 40.6500 -73.4270 North 248 285 4,000  Level FlightAware ADS-B
Mon 05:48:28 AM 40.6720 -73.4360 343° North 240 276 4,000 -136 Level FlightAware ADS-B
Mon 05:48:52 AM 40.6960 -73.4540 330° Northwest 238 274 3,900 -486 Descending FlightAware ADS-B
Mon 05:49:05 AM 40.7090 -73.4630 332° Northwest 228 262 3,700 -833 Descending FlightAware ADS-B
Mon 05:49:28 AM 40.7280 -73.4760 333° Northwest 215 247 3,400 -1,059 Descending FlightAware ADS-B
Mon 05:49:56 AM 40.7540 -73.4940 332° Northwest 215 247 2,800 -1,350 Descending FlightAware ADS-B
Mon 05:50:08 AM 40.7630 -73.5030 323° Northwest 209 241 2,500 -1,200 Descending FlightAware ADS-B
Mon 05:50:16 AM 40.7690 -73.5120 311° West 204 235 2,400 -828 Descending FlightAware ADS-B
Mon 05:50:37 AM 40.7790 -73.5300 306° West 198 228 2,100 -649 Descending FlightAware ADS-B
Mon 05:50:53 AM 40.7880 -73.5480 303° West 198 228 2,000 -214 Descending FlightAware ADS-B
Mon 05:51:05 AM 40.7920 -73.5600 294° West 191 220 2,000  Level FlightAware ADS-B
Mon 05:51:13 AM 40.7940 -73.5690 286° West 184 212 2,000  Level FlightAware ADS-B
Mon 05:51:29 AM 40.7950 -73.5860 274° West 174 200 2,000  Level FlightAware ADS-B
Mon 05:51:53 AM 40.7890 -73.6090 251° West 159 183 2,000  Level FlightAware ADS-B
Mon 05:52:16 AM 40.7810 -73.6300 243° Southwest 160 184 2,000  Level FlightAware ADS-B
Mon 05:52:35 AM 40.7760 -73.6450 246° West 160 184 2,000  Level FlightAware ADS-B
Mon 05:52:43 AM 40.7730 -73.6530 244° Southwest 157 181 2,000  Level FlightAware ADS-B
Mon 05:52:47 AM 40.7710 -73.6550 217° Southwest 155 178 2,000  Level FlightAware ADS-B
Mon 05:52:58 AM 40.7640 -73.6610 213° Southwest 138 159 2,000  Level FlightAware ADS-B
Mon 05:53:15 AM 40.7560 -73.6680 214° Southwest 127 146 2,000  Level FlightAware ADS-B
Mon 05:53:31 AM 40.7480 -73.6740 210° Southwest 123 142 2,000  Level FlightAware ADS-B
Mon 05:53:53 AM 40.7370 -73.6830 212° Southwest 122 140 2,000 -293 Level FlightAware ADS-B
Mon 05:54:12 AM 40.7280 -73.6900 211° Southwest 121 139 1,800 -686 Descending FlightAware ADS-B
Mon 05:54:28 AM 40.7210 -73.6960 213° Southwest 121 139 1,600 -577 Descending FlightAware ADS-B
Mon 05:55:04 AM 40.7340 -73.7250 301° West 127 146 1,300 -536 Descending FlightAware ADS-B
Mon 05:55:24 AM 40.7240 -73.7340 214° Southwest 126 145 1,100 -750 Descending FlightAware ADS-B
Mon 05:55:44 AM 40.7140 -73.7420 211° Southwest 127 146 800 -615 Descending FlightAware ADS-B
Mon 05:56:03 AM 40.7050 -73.7490 211° Southwest 129 148 700 -558 Descending FlightAware ADS-B
Mon 05:56:27 AM 40.6630 -73.7410 172° South 123 142 400 -682 Descending FlightAware ADS-B
Mon 05:56:47 AM 40.6530 -73.7490 211° Southwest 127 146 200 -600 Descending FlightAware ADS-B
Mon 05:57:08 AM 40.6420 -73.7580 212° Southwest 132 152 -571 Descending FlightAware ADS-B
Mon 05:57:30 AM 40.6330 -73.7650 211° Southwest 76 87  Level FlightAware ADS-B

Login

Don't have an account? Register now (free) for customized features, flight alerts, and more!